Terminal Aerodrome Forecast
Issued by NWS

Home | Current Version | Previous Version | Text Only | Print | Product List | Glossary On
Versions: 1 2 3 4 5 6 7 8 9 10 11 12 13 14 15 16 17 18 19 20 21 22 23 24 25 26 27
000
FTUS41 KBOX 210921 AAA
TAFHYA
TAF AMD
KHYA 210921Z 2109/2206 02003KT P6SM SCT025 BKN035
     FM211200 05006KT P6SM OVC025
     FM211800 04006KT P6SM OVC025
     FM212100 04005KT P6SM OVC020
     FM220000 04004KT P6SM OVC025=

USA.gov is the U.S. government's official web portal to all federal, state and local government web resources and services.